Seattle, WA

5:16 PM PST on November 25, 2014 (GMT -0800)
UW Integrated Design Lab, Bullitt Center | Change Station
CLOSE
Current Station
Personal Weather Station
Location: Seattle, WA
Elevation: 404 ft
Nearby Weather Stations
Active Advisory: Flood Warning, Areal Flood Watch

Elev 404 ft 47.61 °N, 122.31 °W | Updated 1 second ago

Overcast
Overcast
52.1 °F
Feels Like 52.1 °F
N
4.0
Wind Variable Wind from SW
Gusts 9.0 mph

Today
High -- | Low -- °F
--% Chance of Precip.
Yesterday
High -- | Low -- °F
Precip. -- in
7:28 AM 4:23 PM
Waxing Crescent, 15% visible
Pressure 30.15 in
Visibility 10.0 miles
Clouds Scattered Clouds 700 ft
Mostly Cloudy 1300 ft
Overcast 1900 ft
Dew Point 51 °F
Humidity 97%
Rainfall 0.27 in
Snow Depth Not available.
UV 0.0 out of 12
Pollen .10 out of 12
Air Quality Not available.
Flu Activity Not available.
METAR KBFI 260053Z 19008G14KT 110V220 10SM SCT007 BKN013 OVC019 14/12 A3015 RMK AO2 RAE02 SLP210 P0000 T01440117

More Conditions Fewer Conditions

Pressure 30.15 in
Visibility 10.0 miles
Clouds Scattered Clouds 700 ft
Mostly Cloudy 1300 ft
Overcast 1900 ft
Dew Point 51 °F
Humidity 97%
Rainfall 0.27 in
Snow Depth Not available.
UV 0.0 out of 12
Pollen .10 out of 12
Air Quality Not available.
Flu Activity Not available.
METAR KBFI 260053Z 19008G14KT 110V220 10SM SCT007 BKN013 OVC019 14/12 A3015 RMK AO2 RAE02 SLP210 P0000 T01440117

More Conditions Fewer Conditions

10-Day Weather Forecast

Almanac

Astronomy

Nov. 25, 2014 Rise Set
Actual Time
Civil Twilight
Nautical Twilight
Astronomical Twilight
Moon
Length of Visible Light
Length of Day
Tomorrow will be .
, % of the Moon is Illuminated

Today's Extremes

State Highs State Lows

Community

WunderPhotos

Upload Photos

1,773,636 photos uploaded!

WunderBlogs® & News

Nearby

Air Quality

  Air Quality AQ Index Pollutant
Not available.

Snow Depth

Station Depth Elevation

Earthquake Activity

City Distance Mag. Time & Date
Minimum magnitude displayed is 2.5.

Coastal Water Temperatures

Place Temperature

Nearby Weather Stations